createdAt,value
2023-03-29T00:00:59.179Z,76.70
2023-03-29T00:03:26.308Z,76.70
2023-03-29T00:05:53.210Z,76.70
2023-03-29T00:08:21.463Z,76.70
2023-03-29T00:10:49.239Z,76.70
2023-03-29T00:13:16.107Z,76.70
2023-03-29T00:15:43.023Z,76.60
2023-03-29T00:18:09.936Z,76.70
2023-03-29T00:20:36.818Z,76.70
2023-03-29T00:23:03.700Z,76.70
2023-03-29T00:25:31.924Z,76.70
2023-03-29T00:27:58.794Z,76.70
2023-03-29T00:30:25.672Z,76.80
2023-03-29T00:32:52.604Z,76.80
2023-03-29T00:35:19.497Z,76.70
2023-03-29T00:37:46.337Z,76.80
2023-03-29T00:40:14.147Z,76.80
2023-03-29T00:42:44.132Z,76.80
2023-03-29T00:45:17.662Z,76.80
2023-03-29T00:47:45.530Z,76.80
2023-03-29T00:50:15.077Z,76.90
2023-03-29T00:52:42.524Z,76.90
2023-03-29T00:55:11.594Z,76.90
2023-03-29T00:57:38.581Z,76.90
2023-03-29T01:00:08.343Z,76.90
2023-03-29T01:02:35.311Z,76.90
2023-03-29T01:05:04.174Z,77.00
2023-03-29T01:07:33.259Z,77.00
2023-03-29T01:10:05.403Z,76.90
2023-03-29T01:12:33.442Z,77.00
2023-03-29T01:15:02.519Z,77.00
2023-03-29T01:17:30.974Z,77.00
2023-03-29T01:19:59.716Z,77.00
2023-03-29T01:22:30.940Z,77.00
2023-03-29T01:25:03.101Z,77.10
2023-03-29T01:27:41.362Z,77.10
2023-03-29T01:30:09.247Z,77.00
2023-03-29T01:32:42.720Z,77.20
2023-03-29T01:35:11.439Z,77.10
2023-03-29T01:37:39.317Z,77.20
2023-03-29T01:40:07.133Z,77.20
2023-03-29T01:42:42.189Z,77.20
2023-03-29T01:45:16.898Z,77.10
2023-03-29T01:47:47.841Z,77.10
2023-03-29T01:50:17.390Z,77.20
2023-03-29T01:52:47.661Z,77.10
2023-03-29T01:55:16.046Z,77.10
2023-03-29T01:57:44.383Z,77.10
2023-03-29T02:00:13.918Z,77.10
2023-03-29T02:02:41.023Z,77.10
2023-03-29T02:05:08.596Z,77.00
2023-03-29T02:07:35.463Z,77.00
2023-03-29T02:10:02.338Z,77.00
2023-03-29T02:12:29.206Z,77.00
2023-03-29T02:14:59.090Z,76.90
2023-03-29T02:17:26.840Z,76.90
2023-03-29T02:19:55.737Z,76.90
2023-03-29T02:22:24.029Z,76.90
2023-03-29T02:24:51.388Z,76.90
2023-03-29T02:27:18.284Z,76.90
2023-03-29T02:29:45.160Z,76.90
2023-03-29T02:32:15.178Z,76.90
2023-03-29T02:34:43.361Z,76.90
2023-03-29T02:37:12.382Z,76.90
2023-03-29T02:39:39.272Z,76.80
2023-03-29T02:42:06.278Z,76.80
2023-03-29T02:44:34.735Z,76.80
2023-03-29T02:47:03.478Z,76.80
2023-03-29T02:49:31.730Z,76.80
2023-03-29T02:52:00.223Z,76.80
2023-03-29T02:54:27.547Z,76.80
2023-03-29T02:56:56.070Z,76.80
2023-03-29T02:59:23.005Z,76.80
2023-03-29T03:01:49.912Z,76.80
2023-03-29T03:04:16.811Z,77.60
2023-03-29T03:06:45.087Z,76.80
2023-03-29T03:09:11.959Z,76.80
2023-03-29T03:11:38.840Z,76.70
2023-03-29T03:14:05.718Z,76.70
2023-03-29T03:16:32.668Z,76.70
2023-03-29T03:18:59.566Z,76.70
2023-03-29T03:21:26.501Z,76.70
2023-03-29T03:23:54.866Z,76.60
2023-03-29T03:26:22.473Z,76.60
2023-03-29T03:28:49.355Z,76.60
2023-03-29T03:31:16.268Z,76.60
2023-03-29T03:33:43.164Z,76.60
2023-03-29T03:36:10.500Z,76.50
2023-03-29T03:38:37.448Z,76.50
2023-03-29T03:41:06.289Z,76.50
2023-03-29T03:43:33.341Z,76.50
2023-03-29T03:46:00.319Z,76.50
2023-03-29T03:48:27.293Z,76.50
2023-03-29T03:50:54.898Z,76.50
2023-03-29T03:53:21.990Z,76.50
2023-03-29T03:55:48.880Z,76.50
2023-03-29T03:58:17.149Z,76.50
2023-03-29T04:00:44.078Z,76.40
2023-03-29T04:03:11.192Z,76.50
2023-03-29T04:05:39.180Z,76.40
2023-03-29T04:08:06.146Z,76.40
2023-03-29T04:10:33.050Z,76.40
2023-03-29T04:12:59.923Z,76.40
2023-03-29T04:15:28.206Z,76.30
2023-03-29T04:17:56.064Z,76.30
2023-03-29T04:20:23.034Z,76.30
2023-03-29T04:22:49.953Z,76.30
2023-03-29T04:25:16.918Z,76.30
2023-03-29T04:27:43.785Z,76.30
2023-03-29T04:30:11.861Z,76.30
2023-03-29T04:32:40.170Z,76.30
2023-03-29T04:35:07.427Z,76.40
2023-03-29T04:37:34.290Z,76.20
2023-03-29T04:40:01.199Z,76.30
2023-03-29T04:42:28.098Z,76.20
2023-03-29T04:44:54.965Z,76.30
2023-03-29T04:47:21.834Z,76.20
2023-03-29T04:49:50.062Z,76.30
2023-03-29T04:52:16.940Z,76.20
2023-03-29T04:54:43.814Z,76.20
2023-03-29T04:57:10.708Z,76.20
2023-03-29T04:59:37.602Z,76.20
2023-03-29T05:02:04.483Z,76.20
2023-03-29T05:04:31.564Z,76.30
2023-03-29T05:06:59.914Z,76.30
2023-03-29T05:09:26.884Z,76.30
2023-03-29T05:11:53.757Z,76.30
2023-03-29T05:14:20.785Z,76.30
2023-03-29T05:16:47.656Z,76.30
2023-03-29T05:19:14.526Z,76.30
2023-03-29T05:21:42.601Z,76.30
2023-03-29T05:24:12.622Z,76.40
2023-03-29T05:26:39.459Z,76.40
2023-03-29T05:29:06.318Z,76.40
2023-03-29T05:31:33.241Z,76.40
2023-03-29T05:34:00.152Z,76.40
2023-03-29T05:36:27.022Z,76.40
2023-03-29T05:38:53.877Z,76.40
2023-03-29T05:41:22.122Z,76.40
2023-03-29T05:43:49.017Z,76.40
2023-03-29T05:46:16.018Z,76.50
2023-03-29T05:48:42.977Z,76.50
2023-03-29T05:51:09.924Z,76.60
2023-03-29T05:53:36.797Z,76.60
2023-03-29T05:56:03.888Z,76.60
2023-03-29T05:58:32.158Z,76.60
2023-03-29T06:00:59.015Z,76.70
2023-03-29T06:03:26.006Z,76.70
2023-03-29T06:05:57.055Z,76.70
2023-03-29T06:08:23.925Z,76.70
2023-03-29T06:10:50.802Z,76.70
2023-03-29T06:13:17.680Z,76.80
2023-03-29T06:15:59.407Z,76.70
2023-03-29T06:18:26.301Z,76.50
2023-03-29T06:20:57.251Z,76.70
2023-03-29T06:23:24.154Z,76.70
2023-03-29T06:26:18.720Z,76.70
2023-03-29T06:28:45.572Z,76.40
2023-03-29T06:31:13.858Z,76.70
2023-03-29T06:33:40.732Z,76.70
2023-03-29T06:36:08.437Z,76.70
2023-03-29T06:38:35.364Z,76.70
2023-03-29T06:41:02.531Z,76.70
2023-03-29T06:43:29.658Z,76.70
2023-03-29T06:46:27.235Z,76.70
2023-03-29T06:48:54.120Z,76.60
2023-03-29T06:51:23.209Z,76.70
2023-03-29T06:53:50.338Z,76.80
2023-03-29T06:56:17.275Z,76.70
2023-03-29T06:58:44.323Z,76.70
2023-03-29T07:01:11.206Z,77.50
2023-03-29T07:03:39.467Z,76.60
2023-03-29T07:06:26.026Z,76.70
2023-03-29T07:08:52.896Z,76.60
2023-03-29T07:11:19.750Z,76.70
